Time;durP1;ratioP1;P1;durP2;ratioP2;P2;SDS_P1;SDS_P2;PMS_P1;PMS_P2;Temp;Humidity;BMP_temperature;BMP_pressure;BME280_temperature;BME280_humidity;BME280_pressure;Samples;Min_cycle;Max_cycle;Signal;HPM_P1;HPM_P2
2022/12/06 11:22:58;;;;;;;4.63;3.00;;;;;;;5.46;100.00;101859.75;5110699;27;1217697;-69
2022/12/06 11:26:01;;;;;;;5.78;3.38;;;;;;;5.49;100.00;101856.72;5129693;28;20134;-69
2022/12/06 11:28:42;;;;;;;6.75;4.55;;;;;;;5.50;100.00;101849.53;5128508;28;20033;-70
2022/12/06 11:31:24;;;;;;;7.35;3.63;;;;;;;5.55;100.00;101859.78;5129819;27;20035;-70
2022/12/06 11:33:49;;;;;;;5.75;2.95;;;;;;;5.57;100.00;101847.00;5130673;27;20046;-71
2022/12/06 11:36:14;;;;;;;6.38;3.17;;;;;;;5.62;100.00;101850.06;5126417;27;20028;-70
2022/12/06 11:38:42;;;;;;;4.57;3.17;;;;;;;5.67;100.00;101839.63;5125880;28;20034;-70
2022/12/06 11:41:11;;;;;;;6.63;3.17;;;;;;;5.74;100.00;101848.72;5125035;28;20072;-70
2022/12/06 11:43:37;;;;;;;6.60;3.00;;;;;;;5.81;100.00;101841.66;5109862;28;20448;-70
2022/12/06 11:46:05;;;;;;;8.82;2.63;;;;;;;5.88;100.00;101835.59;5110759;28;20395;-69
2022/12/06 11:48:33;;;;;;;5.22;2.60;;;;;;;5.92;100.00;101836.91;5109460;28;20435;-69
2022/12/06 11:50:59;;;;;;;5.25;2.83;;;;;;;5.95;100.00;101831.22;5126785;28;20106;-69
2022/12/06 11:53:44;;;;;;;4.45;2.38;;;;;;;6.02;100.00;101830.41;5089873;28;20440;-70
2022/12/06 11:56:23;;;;;;;4.80;2.72;;;;;;;6.01;100.00;101827.91;5108335;28;20028;-70
2022/12/06 11:59:23;;;;;;;5.05;2.70;;;;;;;6.02;100.00;101826.88;5108688;28;20112;-70
2022/12/06 12:01:51;;;;;;;4.47;2.63;;;;;;;6.02;100.00;101816.13;5086700;28;20020;-71
2022/12/06 12:04:40;;;;;;;6.53;3.13;;;;;;;6.03;100.00;101824.00;5098981;28;20024;-74
2022/12/06 12:07:08;;;;;;;14.27;3.38;;;;;;;6.02;100.00;101808.91;5109086;28;20038;-69
2022/12/06 12:09:50;;;;;;;4.53;2.53;;;;;;;6.01;100.00;101811.78;5106966;28;20471;-71
2022/12/06 12:12:22;;;;;;;6.45;2.40;;;;;;;5.98;100.00;101809.44;5108180;28;20036;-73
2022/12/06 12:14:57;;;;;;;13.23;2.88;;;;;;;5.91;100.00;101805.72;5109316;28;20024;-70
2022/12/06 12:17:29;;;;;;;5.35;2.40;;;;;;;5.88;100.00;101806.06;5108253;28;20058;-70
2022/12/06 12:20:01;;;;;;;6.68;2.67;;;;;;;5.84;100.00;101801.03;5109150;28;20170;-70
2022/12/06 12:22:26;;;;;;;9.63;2.95;;;;;;;5.85;100.00;101808.06;5108492;28;20141;-70
2022/12/06 12:24:57;;;;;;;8.15;3.08;;;;;;;5.90;100.00;101804.03;5108907;28;20486;-70
2022/12/06 12:27:41;;;;;;;5.75;2.97;;;;;;;5.93;100.00;101801.81;5109043;28;20024;-70
2022/12/06 12:30:31;;;;;;;8.18;3.10;;;;;;;5.96;100.00;101789.91;5109307;28;20031;-70
2022/12/06 12:33:05;;;;;;;4.30;2.65;;;;;;;5.94;100.00;101789.25;5100181;28;20085;-70
2022/12/06 12:35:33;;;;;;;8.27;3.30;;;;;;;5.92;100.00;101788.56;5094541;28;20028;-70
2022/12/06 12:38:10;;;;;;;3.05;2.30;;;;;;;5.94;100.00;101789.25;5095822;28;20097;-80
2022/12/06 12:40:40;;;;;;;5.18;2.58;;;;;;;5.96;100.00;101784.53;5095190;28;20524;-70
2022/12/06 12:43:11;;;;;;;6.53;2.63;;;;;;;5.95;100.00;101793.59;5093208;28;20065;-71
2022/12/06 12:45:39;;;;;;;5.22;3.10;;;;;;;5.96;100.00;101796.13;5095111;28;20055;-69
2022/12/06 12:48:23;;;;;;;5.20;2.60;;;;;;;5.97;100.00;101789.75;5095307;28;20097;-69
2022/12/06 12:51:00;;;;;;;4.97;2.78;;;;;;;6.03;100.00;101788.25;5095063;28;20028;-69
2022/12/06 12:53:36;;;;;;;7.15;2.95;;;;;;;6.02;100.00;101783.88;5094050;28;20040;-75
2022/12/06 12:56:07;;;;;;;4.80;2.50;;;;;;;6.03;100.00;101786.38;5094413;28;20032;-69
2022/12/06 12:58:33;;;;;;;7.05;2.78;;;;;;;6.03;100.00;101782.88;5093823;28;20042;-70
2022/12/06 13:01:08;;;;;;;8.38;2.60;;;;;;;6.02;100.00;101787.44;5091877;28;20024;-73
2022/12/06 13:03:43;;;;;;;5.13;2.90;;;;;;;6.05;100.00;101783.53;5093364;28;20487;-80
2022/12/06 13:06:40;;;;;;;6.28;2.72;;;;;;;6.05;100.00;101785.38;5094815;28;20024;-69
2022/12/06 13:09:13;;;;;;;5.03;2.83;;;;;;;6.06;100.00;101785.22;5082550;28;20429;-69
2022/12/06 13:11:46;;;;;;;5.32;2.50;;;;;;;6.08;100.00;101777.81;5085926;28;20024;-70
2022/12/06 13:14:18;;;;;;;5.25;2.63;;;;;;;6.09;100.00;101774.13;5094639;28;20081;-70
2022/12/06 13:16:44;;;;;;;;;;;;;;;6.15;100.00;101778.81;5093534;28;20084;-72
2022/12/06 13:19:15;;;;;;;5.20;2.40;;;;;;;6.14;100.00;101777.13;5093983;28;19951;-69
2022/12/06 13:21:44;;;;;;;4.82;2.50;;;;;;;6.16;100.00;101775.13;5091178;28;20052;-68
2022/12/06 13:24:09;;;;;;;8.52;2.75;;;;;;;6.17;100.00;101779.47;5074143;28;20426;-70
2022/12/06 13:26:41;;;;;;;4.93;2.70;;;;;;;6.18;100.00;101770.41;5074321;28;20029;-69
2022/12/06 13:29:26;;;;;;;9.88;2.80;;;;;;;6.25;100.00;101772.38;5074101;28;20025;-69
2022/12/06 13:31:54;;;;;;;7.15;2.42;;;;;;;6.25;100.00;101773.25;5073203;28;20391;-69
2022/12/06 13:34:28;;;;;;;5.32;2.17;;;;;;;6.25;100.00;101770.56;5074137;28;20024;-69
2022/12/06 13:36:53;;;;;;;10.63;2.80;;;;;;;6.30;100.00;101768.19;5075651;28;20043;-71
2022/12/06 13:39:31;;;;;;;7.47;3.25;;;;;;;6.32;100.00;101765.31;5092177;28;20028;-70
2022/12/06 13:42:17;;;;;;;3.90;2.60;;;;;;;6.32;100.00;101770.69;5088580;28;20047;-70
2022/12/06 13:45:01;;;;;;;6.38;2.67;;;;;;;6.32;100.00;101768.00;5093044;28;20063;-73
2022/12/06 13:47:27;;;;;;;9.48;2.60;;;;;;;6.32;100.00;101759.94;5094426;28;20436;-73
2022/12/06 13:50:22;;;;;;;5.28;2.40;;;;;;;6.35;100.00;101762.28;5092727;28;20063;-68
2022/12/06 13:52:47;;;;;;;6.15;2.35;;;;;;;6.35;100.00;101756.91;5079010;28;20094;-72
2022/12/06 13:55:25;;;;;;;4.07;2.78;;;;;;;6.36;100.00;101759.41;5093727;28;20032;-74
2022/12/06 13:58:15;;;;;;;6.40;2.55;;;;;;;6.35;100.00;101748.84;5092273;28;20085;-73
2022/12/06 14:00:41;;;;;;;7.43;2.90;;;;;;;6.38;100.00;101743.94;5086131;28;20019;-71
2022/12/06 14:03:12;;;;;;;5.55;2.70;;;;;;;6.37;100.00;101749.47;5092508;28;20073;-71
2022/12/06 14:05:56;;;;;;;3.90;2.37;;;;;;;6.43;100.00;101751.50;5093522;28;20024;-74
2022/12/06 14:08:30;;;;;;;4.10;2.30;;;;;;;6.41;100.00;101745.44;5092193;28;20268;-70
2022/12/06 14:11:08;;;;;;;4.57;2.30;;;;;;;6.44;100.00;101747.78;5079364;28;20132;-73
2022/12/06 14:13:33;;;;;;;5.45;2.72;;;;;;;6.44;100.00;101750.47;5072025;28;20036;-73
2022/12/06 14:15:59;;;;;;;8.75;3.40;;;;;;;6.45;100.00;101749.47;5071707;28;20028;-71
2022/12/06 14:18:26;;;;;;;5.80;3.10;;;;;;;6.42;100.00;101754.38;5075337;28;20032;-71
2022/12/06 14:20:55;;;;;;;5.05;2.83;;;;;;;6.39;100.00;101750.16;5087681;28;20031;-76
2022/12/06 14:23:30;;;;;;;4.97;2.67;;;;;;;6.37;100.00;101744.09;5092240;28;20396;-73
2022/12/06 14:26:16;;;;;;;5.78;2.88;;;;;;;6.39;100.00;101758.22;5091837;28;20024;-72
2022/12/06 14:28:42;;;;;;;6.72;2.60;;;;;;;6.37;100.00;101746.78;5092356;28;20063;-73
2022/12/06 14:31:21;;;;;;;6.28;2.90;;;;;;;6.33;100.00;101746.31;5091736;28;20456;-76
2022/12/06 14:33:47;;;;;;;5.88;2.78;;;;;;;6.38;100.00;101740.41;5091683;28;20031;-71
2022/12/06 14:36:20;;;;;;;5.97;2.85;;;;;;;6.35;100.00;101740.78;5091890;28;20032;-71
2022/12/06 14:38:56;;;;;;;7.40;3.75;;;;;;;6.32;100.00;101739.25;5091387;28;20046;-76
2022/12/06 14:44:15;;;;;;;7.60;3.35;;;;;;;6.31;100.00;101736.75;5092892;28;20654;-71
2022/12/06 14:46:43;;;;;;;8.35;3.42;;;;;;;6.30;100.00;101732.41;5092268;28;20066;-72
2022/12/06 14:52:18;;;;;;;8.32;4.22;;;;;;;6.31;100.00;101731.38;5092743;28;20054;-71
2022/12/06 14:54:44;;;;;;;7.20;4.60;;;;;;;6.26;100.00;101712.25;5092963;28;20032;-70
2022/12/06 14:57:21;;;;;;;7.95;3.95;;;;;;;6.23;100.00;101723.34;5091515;28;20039;-70
2022/12/06 14:59:55;;;;;;;7.30;4.15;;;;;;;6.21;100.00;101718.16;5091800;28;20055;-69
2022/12/06 15:02:27;;;;;;;10.02;4.43;;;;;;;6.20;100.00;101719.16;5089765;28;20028;-71
2022/12/06 15:04:53;;;;;;;12.35;3.95;;;;;;;6.18;100.00;101718.50;5091220;28;20024;-70
2022/12/06 15:07:39;;;;;;;6.88;3.90;;;;;;;6.17;100.00;101717.66;5091508;28;20486;-72
2022/12/06 15:10:17;;;;;;;7.20;4.10;;;;;;;6.15;100.00;101722.38;5091929;28;20051;-71
2022/12/06 15:12:54;;;;;;;9.23;4.60;;;;;;;6.15;100.00;101718.84;5091621;28;20047;-70
2022/12/06 15:15:39;;;;;;;8.48;5.05;;;;;;;6.14;100.00;101720.69;5091965;28;20506;-69
2022/12/06 15:18:23;;;;;;;9.55;4.95;;;;;;;6.18;100.00;101719.34;5092561;28;20032;-69
2022/12/06 15:20:49;;;;;;;12.65;5.20;;;;;;;6.13;100.00;101708.28;5091901;28;20111;-71
2022/12/06 15:23:24;;;;;;;7.25;4.80;;;;;;;6.18;100.00;101713.13;5092670;28;20028;-69
2022/12/06 15:25:49;;;;;;;5.72;3.28;;;;;;;6.19;100.00;101717.50;5090895;28;20129;-70
2022/12/06 15:28:14;;;;;;;9.27;3.90;;;;;;;6.12;100.00;101717.34;5092195;28;20420;-69
2022/12/06 15:30:40;;;;;;;8.80;4.00;;;;;;;6.11;100.00;101721.03;5089084;28;20030;-70
2022/12/06 15:33:16;;;;;;;8.55;3.65;;;;;;;6.10;100.00;101723.91;5090225;28;20375;-69
2022/12/06 15:35:42;;;;;;;7.95;4.00;;;;;;;6.08;100.00;101728.63;5071107;28;20070;-69
2022/12/06 15:38:08;;;;;;;5.53;4.05;;;;;;;6.04;100.00;101722.75;5080179;28;20056;-69
2022/12/06 15:40:35;;;;;;;7.60;4.10;;;;;;;6.08;100.00;101721.38;5092434;28;20040;-70
2022/12/06 15:43:00;;;;;;;8.20;4.00;;;;;;;6.03;100.00;101721.91;5092197;28;20114;-70
2022/12/06 15:45:26;;;;;;;6.82;4.03;;;;;;;6.05;100.00;101710.97;5091240;28;20103;-70
2022/12/06 15:47:52;;;;;;;11.60;4.10;;;;;;;6.03;100.00;101723.75;5090891;28;20032;-71
2022/12/06 15:50:18;;;;;;;14.98;4.50;;;;;;;6.02;100.00;101720.25;5091042;28;20032;-71
2022/12/06 15:52:43;;;;;;;10.00;4.55;;;;;;;6.02;100.00;101711.34;5089537;28;20028;-71
2022/12/06 15:55:16;;;;;;;6.10;4.00;;;;;;;6.00;100.00;101713.38;5091212;28;20032;-71
2022/12/06 15:57:42;;;;;;;9.63;4.13;;;;;;;6.01;100.00;101723.13;5090939;28;20550;-71
2022/12/06 16:00:08;;;;;;;10.55;4.95;;;;;;;6.00;100.00;101729.50;5091855;28;20115;-71
2022/12/06 16:02:33;;;;;;;8.13;4.68;;;;;;;6.01;100.00;101725.78;5089799;28;20475;-71
2022/12/06 16:04:59;;;;;;;11.23;5.15;;;;;;;6.02;100.00;101722.94;5091017;28;20032;-71
2022/12/06 16:07:24;;;;;;;8.05;5.05;;;;;;;6.02;100.00;101722.06;5091173;28;20032;-70
2022/12/06 16:09:49;;;;;;;12.63;4.53;;;;;;;6.01;100.00;101725.78;5095995;28;20177;-68
2022/12/06 16:12:15;;;;;;;9.63;4.82;;;;;;;5.96;100.00;101723.59;5095989;28;20035;-67
2022/12/06 16:14:40;;;;;;;10.15;4.10;;;;;;;5.93;100.00;101723.91;5092788;28;20032;-69
2022/12/06 16:17:06;;;;;;;12.07;4.03;;;;;;;5.92;100.00;101724.09;5095736;28;20033;-69
2022/12/06 16:22:15;;;;;;;12.88;4.57;;;;;;;5.88;100.00;101720.91;5091219;28;20062;-67
2022/12/06 16:24:40;;;;;;;8.95;4.57;;;;;;;5.85;100.00;101714.03;5095761;28;20024;-67
2022/12/06 16:27:06;;;;;;;7.65;4.38;;;;;;;5.85;100.00;101715.91;5095148;28;20837;-67
2022/12/06 16:29:32;;;;;;;11.73;4.80;;;;;;;5.85;100.00;101711.34;5095360;28;20035;-67
2022/12/06 16:31:57;;;;;;;10.20;4.38;;;;;;;5.86;100.00;101713.03;5087582;28;20037;-67
2022/12/06 16:34:23;;;;;;;10.65;4.13;;;;;;;5.86;100.00;101704.97;5075524;28;20039;-66
2022/12/06 16:36:56;;;;;;;9.43;4.25;;;;;;;5.87;100.00;101713.88;5075076;28;20031;-67
2022/12/06 16:39:21;;;;;;;10.00;4.78;;;;;;;5.86;100.00;101713.03;5075259;28;20025;-67
2022/12/06 16:41:47;;;;;;;6.10;4.25;;;;;;;5.85;100.00;101705.97;5075137;28;20388;-67
2022/12/06 16:44:12;;;;;;;9.70;5.05;;;;;;;5.86;100.00;101709.53;5076032;28;20476;-67
2022/12/06 16:46:38;;;;;;;11.75;6.07;;;;;;;5.83;100.00;101702.63;5091570;28;20149;-67
2022/12/06 16:49:06;;;;;;;11.23;6.60;;;;;;;5.85;100.00;101694.41;5094150;28;20494;-67
2022/12/06 16:51:33;;;;;;;11.20;5.30;;;;;;;5.86;100.00;101698.78;5093925;28;20490;-67
2022/12/06 16:54:00;;;;;;;6.38;4.40;;;;;;;5.85;100.00;101694.41;5095049;28;20375;-67
2022/12/06 16:56:27;;;;;;;8.32;3.70;;;;;;;5.79;100.00;101690.56;5094138;28;20094;-68
2022/12/06 16:58:52;;;;;;;5.93;3.90;;;;;;;5.76;100.00;101690.06;5089859;28;20386;-66
2022/12/06 17:01:48;;;;;;;9.90;4.18;;;;;;;5.77;100.00;101697.13;5092665;28;20028;-67
2022/12/06 17:04:14;;;;;;;12.00;5.03;;;;;;;5.73;100.00;101701.16;5087214;28;20079;-67
2022/12/06 17:06:39;;;;;;;26.70;12.40;;;;;;;5.66;100.00;101692.94;5091469;28;20063;-67
2022/12/06 17:09:04;;;;;;;20.10;11.40;;;;;;;5.64;100.00;101682.38;5093766;28;20032;-68
2022/12/06 17:14:18;;;;;;;9.02;5.32;;;;;;;5.66;100.00;101680.38;5093466;28;20094;-69
2022/12/06 17:16:44;;;;;;;9.57;4.30;;;;;;;5.67;100.00;101682.03;5083403;28;20086;-69
2022/12/06 17:19:17;;;;;;;12.38;5.00;;;;;;;5.64;100.00;101682.38;5072550;28;20039;-69
2022/12/06 17:21:43;;;;;;;11.40;4.30;;;;;;;5.62;100.00;101681.72;5086384;28;20512;-68
2022/12/06 17:24:09;;;;;;;8.95;4.22;;;;;;;5.57;100.00;101675.19;5092448;28;20028;-69
2022/12/06 17:26:35;;;;;;;7.15;4.03;;;;;;;5.56;100.00;101674.34;5094615;28;20077;-68
2022/12/06 17:29:01;;;;;;;9.18;4.30;;;;;;;5.54;100.00;101675.53;5094300;28;20032;-69
2022/12/06 17:31:27;;;;;;;9.25;4.43;;;;;;;5.54;100.00;101680.88;5093030;28;20032;-67
2022/12/06 17:33:54;;;;;;;7.60;4.38;;;;;;;5.53;100.00;101679.22;5093025;28;20063;-68
2022/12/06 17:36:19;;;;;;;12.60;4.68;;;;;;;5.54;100.00;101679.06;5087782;28;20368;-73
2022/12/06 17:38:44;;;;;;;8.10;3.72;;;;;;;5.54;100.00;101679.06;5072761;28;20021;-68
2022/12/06 17:43:59;;;;;;;11.73;5.28;;;;;;;5.57;100.00;101686.78;5080892;28;20047;-67
2022/12/06 17:46:25;;;;;;;7.15;4.07;;;;;;;5.54;100.00;101680.88;5093488;28;20067;-67
2022/12/06 17:48:50;;;;;;;7.65;4.20;;;;;;;5.52;100.00;101685.59;5094255;28;20482;-69
2022/12/06 17:51:16;;;;;;;5.97;3.95;;;;;;;5.51;100.00;101674.03;5093063;28;20376;-67
2022/12/06 17:53:41;;;;;;;7.28;3.63;;;;;;;5.52;100.00;101682.91;5093196;28;20028;-67
2022/12/06 17:56:29;;;;;;;5.05;3.40;;;;;;;5.48;100.00;101680.56;5093681;28;20097;-69
2022/12/06 17:58:56;;;;;;;6.00;3.70;;;;;;;5.43;100.00;101672.19;5093824;28;20032;-68
2022/12/06 18:01:22;;;;;;;7.40;3.60;;;;;;;5.41;100.00;101676.91;5091391;28;20375;-68
2022/12/06 18:03:56;;;;;;;10.75;4.57;;;;;;;5.43;100.00;101674.03;5091908;28;20115;-67
2022/12/06 18:06:22;;;;;;;6.53;5.15;;;;;;;5.37;100.00;101675.56;5091141;28;20048;-68
2022/12/06 18:08:47;;;;;;;7.93;4.18;;;;;;;5.35;100.00;101671.38;5090423;28;20085;-66
2022/12/06 18:11:14;;;;;;;8.48;4.43;;;;;;;5.33;100.00;101668.88;5091512;28;20044;-66
2022/12/06 18:13:40;;;;;;;5.88;3.90;;;;;;;5.35;100.00;101669.53;5092389;28;20036;-73
2022/12/06 18:16:27;;;;;;;8.07;4.32;;;;;;;5.35;100.00;101668.69;5092566;28;20035;-68
2022/12/06 18:18:58;;;;;;;7.68;4.32;;;;;;;5.32;100.00;101667.19;5093234;28;20048;-67
2022/12/06 18:21:24;;;;;;;19.00;7.28;;;;;;;5.33;100.00;101664.31;5092225;28;20097;-68
2022/12/06 18:23:50;;;;;;;9.25;4.90;;;;;;;5.31;100.00;101661.00;5093469;28;20028;-68
2022/12/06 18:26:16;;;;;;;8.20;5.10;;;;;;;5.29;100.00;101665.66;5093316;28;20043;-70
2022/12/06 18:28:43;;;;;;;11.25;4.90;;;;;;;5.30;100.00;101663.84;5092646;28;20410;-70
2022/12/06 18:31:10;;;;;;;7.80;5.15;;;;;;;5.30;100.00;101670.03;5090027;28;20028;-68
2022/12/06 18:33:38;;;;;;;7.72;4.68;;;;;;;5.26;100.00;101662.50;5093603;28;20097;-67
2022/12/06 18:36:04;;;;;;;6.85;4.93;;;;;;;5.24;100.00;101668.03;5092835;28;20456;-67
2022/12/06 18:38:30;;;;;;;6.65;4.90;;;;;;;5.23;100.00;101665.53;5093281;28;20085;-68
2022/12/06 18:41:05;;;;;;;7.88;5.20;;;;;;;5.26;100.00;101665.19;5090539;28;20427;-67
2022/12/06 18:43:32;;;;;;;11.60;5.97;;;;;;;5.22;100.00;101659.28;5092697;28;20065;-71
2022/12/06 18:46:03;;;;;;;8.90;5.20;;;;;;;5.21;100.00;101667.50;5087845;28;20588;-69
2022/12/06 18:48:29;;;;;;;10.23;5.35;;;;;;;5.22;100.00;101671.88;5087652;28;20491;-67
2022/12/06 18:50:54;;;;;;;8.27;5.10;;;;;;;5.20;100.00;101664.00;5092806;28;20049;-67
2022/12/06 18:53:19;;;;;;;8.25;5.57;;;;;;;5.22;100.00;101658.47;5091046;28;20028;-68
2022/12/06 18:55:45;;;;;;;7.85;5.05;;;;;;;5.21;100.00;101662.16;5092190;28;20394;-68
2022/12/06 18:58:10;;;;;;;9.25;5.70;;;;;;;5.19;100.00;101656.13;5090083;28;20062;-67
2022/12/06 19:00:39;;;;;;;8.95;5.55;;;;;;;5.21;100.00;101667.50;5088940;28;20371;-68
2022/12/06 19:03:04;;;;;;;8.48;5.68;;;;;;;5.15;100.00;101653.78;5092609;28;20479;-68
2022/12/06 19:05:30;;;;;;;8.85;5.90;;;;;;;5.15;100.00;101648.41;5092947;28;20051;-68
2022/12/06 19:07:55;;;;;;;11.13;5.95;;;;;;;5.13;100.00;101649.59;5090451;28;20024;-68
2022/12/06 19:10:21;;;;;;;8.60;5.32;;;;;;;5.14;100.00;101652.09;5092577;28;20020;-68
2022/12/06 19:12:47;;;;;;;7.65;5.72;;;;;;;5.10;100.00;101653.47;5091091;28;20042;-68
2022/12/06 19:15:13;;;;;;;9.93;6.03;;;;;;;5.09;100.00;101649.09;5092192;28;20035;-68
2022/12/06 19:17:42;;;;;;;8.13;5.68;;;;;;;5.05;100.00;101645.06;5088136;28;20036;-68
2022/12/06 19:20:08;;;;;;;11.52;6.88;;;;;;;5.11;100.00;101644.38;5074530;28;20585;-68
2022/12/06 19:22:35;;;;;;;10.18;6.28;;;;;;;5.04;100.00;101648.78;5070652;28;20049;-68
2022/12/06 19:25:04;;;;;;;8.00;6.28;;;;;;;5.07;100.00;101642.22;5070533;28;20031;-68
2022/12/06 19:27:34;;;;;;;7.60;6.07;;;;;;;5.05;100.00;101650.44;5071010;28;20476;-68
2022/12/06 19:30:01;;;;;;;8.98;6.30;;;;;;;5.05;100.00;101655.81;5089667;28;20417;-68
2022/12/06 19:32:33;;;;;;;12.18;6.97;;;;;;;5.06;100.00;101654.81;5088995;28;20495;-70
2022/12/06 19:35:06;;;;;;;15.25;6.63;;;;;;;5.02;100.00;101655.31;5083340;28;20115;-69
2022/12/06 19:37:33;;;;;;;9.45;6.60;;;;;;;5.05;100.00;101653.13;5083263;28;20036;-68
2022/12/06 19:39:58;;;;;;;10.80;6.63;;;;;;;5.00;100.00;101644.75;5086971;28;20032;-68
2022/12/06 19:45:16;;;;;;;12.05;6.57;;;;;;;5.01;100.00;101659.00;5083820;28;20047;-71
2022/12/06 19:47:43;;;;;;;12.52;6.07;;;;;;;5.00;100.00;101662.66;5094536;28;20483;-67
2022/12/06 19:50:08;;;;;;;9.90;6.35;;;;;;;5.00;100.00;101665.34;5093216;28;20128;-69
2022/12/06 19:52:34;;;;;;;10.52;7.07;;;;;;;4.96;100.00;101668.38;5096217;28;20027;-68
2022/12/06 19:54:59;;;;;;;10.65;7.20;;;;;;;4.92;100.00;101666.19;5096124;28;20027;-68
2022/12/06 19:57:24;;;;;;;12.82;7.20;;;;;;;4.90;100.00;101668.22;5095134;28;20067;-69
2022/12/06 19:59:52;;;;;;;10.27;6.35;;;;;;;4.91;100.00;101661.84;5093319;28;20100;-69
2022/12/06 20:02:17;;;;;;;12.27;7.47;;;;;;;4.88;100.00;101654.16;5093573;28;20024;-69
2022/12/06 20:04:43;;;;;;;11.65;7.20;;;;;;;4.89;100.00;101661.16;5096220;28;20395;-69
2022/12/06 20:07:08;;;;;;;13.50;7.47;;;;;;;4.86;100.00;101659.69;5095973;28;20105;-69
2022/12/06 20:09:34;;;;;;;11.77;8.55;;;;;;;4.85;100.00;101663.34;5095489;28;20028;-69
2022/12/06 20:12:04;;;;;;;11.20;8.10;;;;;;;4.84;100.00;101660.84;5095878;28;20459;-69
2022/12/06 20:14:43;;;;;;;16.35;7.10;;;;;;;4.84;100.00;101660.84;5095085;28;20464;-69
2022/12/06 20:17:13;;;;;;;12.50;7.78;;;;;;;4.83;100.00;101665.38;5094067;28;20032;-69
2022/12/06 20:19:44;;;;;;;12.70;8.02;;;;;;;4.81;100.00;101663.84;5093796;28;20035;-69
2022/12/06 20:22:10;;;;;;;11.80;7.50;;;;;;;4.80;100.00;101668.38;5094541;28;20387;-68
2022/12/06 20:24:36;;;;;;;11.13;7.95;;;;;;;4.81;100.00;101655.81;5095848;28;20414;-68
2022/12/06 20:27:01;;;;;;;10.48;7.68;;;;;;;4.84;100.00;101658.97;5094960;28;20077;-70
2022/12/06 20:29:28;;;;;;;10.57;8.20;;;;;;;4.82;100.00;101661.00;5086714;28;20395;-68
2022/12/06 20:31:56;;;;;;;14.65;7.93;;;;;;;4.79;100.00;101653.31;5095708;28;20475;-68
2022/12/06 20:34:22;;;;;;;12.43;8.38;;;;;;;4.82;100.00;101657.50;5095467;28;20050;-69
2022/12/06 20:36:47;;;;;;;15.55;7.80;;;;;;;4.84;100.00;101658.16;5095913;28;20527;-68
2022/12/06 20:39:22;;;;;;;12.73;8.40;;;;;;;4.83;100.00;101653.78;5094297;28;20379;-68
2022/12/06 20:41:48;;;;;;;15.38;9.63;;;;;;;4.82;100.00;101652.13;5094445;28;20036;-69
2022/12/06 20:44:14;;;;;;;12.43;8.30;;;;;;;4.82;100.00;101644.09;5095238;28;20040;-68
2022/12/06 20:46:40;;;;;;;14.15;9.00;;;;;;;4.82;100.00;101646.78;5095491;28;20036;-69
2022/12/06 20:49:06;;;;;;;14.40;8.65;;;;;;;4.81;100.00;101663.84;5093879;28;20067;-69
2022/12/06 20:51:32;;;;;;;11.55;8.45;;;;;;;4.81;100.00;101655.81;5095300;28;20089;-69
2022/12/06 20:54:01;;;;;;;13.80;8.80;;;;;;;4.78;100.00;101652.44;5094508;28;20460;-69
2022/12/06 20:56:29;;;;;;;12.60;8.60;;;;;;;4.79;100.00;101654.13;5093362;28;20466;-69
2022/12/06 20:58:57;;;;;;;12.27;8.48;;;;;;;4.79;100.00;101647.94;5092403;28;20044;-69
2022/12/06 21:01:28;;;;;;;13.10;9.20;;;;;;;4.78;100.00;101660.47;5092063;28;20059;-69
2022/12/06 21:03:54;;;;;;;11.93;8.70;;;;;;;4.82;100.00;101649.44;5095121;28;20527;-69
2022/12/06 21:06:21;;;;;;;12.68;9.07;;;;;;;4.81;100.00;101651.28;5094837;28;20108;-69
2022/12/06 21:08:47;;;;;;;20.25;9.55;;;;;;;4.83;100.00;101653.78;5092985;28;20032;-69
2022/12/06 21:11:13;;;;;;;13.02;8.85;;;;;;;4.81;100.00;101653.13;5094721;28;20028;-69
2022/12/06 21:13:39;;;;;;;13.63;8.85;;;;;;;4.81;100.00;101653.13;5094656;28;20032;-69
2022/12/06 21:16:16;;;;;;;13.18;9.25;;;;;;;4.81;100.00;101656.63;5094536;28;20548;-69
2022/12/06 21:18:42;;;;;;;15.23;8.30;;;;;;;4.83;100.00;101659.16;5093739;28;20028;-68
2022/12/06 21:21:08;;;;;;;12.43;8.40;;;;;;;4.83;100.00;101651.09;5094139;28;20457;-68
2022/12/06 21:23:34;;;;;;;14.65;8.27;;;;;;;4.83;100.00;101656.47;5093943;28;20038;-68
2022/12/06 21:26:04;;;;;;;12.52;8.48;;;;;;;4.79;100.00;101661.34;5094979;28;20115;-68
2022/12/06 21:28:30;;;;;;;13.57;8.70;;;;;;;4.81;100.00;101661.19;5093114;28;20031;-68
2022/12/06 21:30:56;;;;;;;14.80;9.43;;;;;;;4.83;100.00;101651.09;5093191;28;20024;-68
2022/12/06 21:33:23;;;;;;;11.95;8.65;;;;;;;4.81;100.00;101647.78;5094548;28;20039;-68
2022/12/06 21:35:49;;;;;;;13.68;9.60;;;;;;;4.79;100.00;101647.94;5094516;28;20073;-68
2022/12/06 21:38:15;;;;;;;12.50;8.93;;;;;;;4.79;100.00;101638.03;5092419;28;20036;-68
2022/12/06 21:40:41;;;;;;;17.77;9.35;;;;;;;4.81;100.00;101629.81;5093534;28;20042;-68
2022/12/06 21:43:06;;;;;;;13.43;8.98;;;;;;;4.79;100.00;101635.34;5094009;28;20028;-67
2022/12/06 21:45:39;;;;;;;14.15;9.80;;;;;;;4.78;100.00;101630.97;5094337;28;20077;-68
2022/12/06 21:48:06;;;;;;;12.35;9.35;;;;;;;4.79;100.00;101638.03;5094207;28;20560;-68
2022/12/06 21:50:31;;;;;;;15.10;9.40;;;;;;;4.81;100.00;101639.72;5093199;28;20489;-68
2022/12/06 21:52:56;;;;;;;12.23;9.13;;;;;;;4.78;100.00;101643.56;5094074;28;20032;-68
2022/12/06 21:55:22;;;;;;;13.43;9.27;;;;;;;4.77;100.00;101645.41;5090719;28;20032;-68
2022/12/06 21:57:48;;;;;;;12.98;9.02;;;;;;;4.79;100.00;101650.63;5091122;28;20027;-67
2022/12/06 22:00:14;;;;;;;15.48;9.70;;;;;;;4.74;100.00;101648.44;5089571;28;20118;-68
2022/12/06 22:02:40;;;;;;;14.50;9.00;;;;;;;4.79;100.00;101655.97;5089987;28;20077;-68
2022/12/06 22:05:06;;;;;;;13.48;9.38;;;;;;;4.76;100.00;101657.13;5093296;28;20111;-68
2022/12/06 22:07:32;;;;;;;12.70;8.95;;;;;;;4.74;100.00;101652.94;5092907;28;20115;-68
2022/12/06 22:09:57;;;;;;;12.38;9.30;;;;;;;4.72;100.00;101653.09;5093087;28;20106;-68
2022/12/06 22:12:23;;;;;;;16.80;9.45;;;;;;;4.69;100.00;101650.75;5092853;28;20038;-68
2022/12/06 22:14:48;;;;;;;14.07;9.65;;;;;;;4.71;100.00;101654.13;5093716;28;20052;-68
2022/12/06 22:17:13;;;;;;;14.27;9.20;;;;;;;4.71;100.00;101646.09;5093435;28;20376;-68
2022/12/06 22:19:39;;;;;;;15.23;8.75;;;;;;;4.69;100.00;101644.56;5091919;28;20036;-68
2022/12/06 22:22:04;;;;;;;12.45;9.82;;;;;;;4.70;100.00;101651.63;5091922;28;20040;-68
2022/12/06 22:24:29;;;;;;;12.48;9.50;;;;;;;4.68;100.00;101653.59;5093395;28;20032;-68
2022/12/06 22:26:55;;;;;;;15.23;10.13;;;;;;;4.71;100.00;101648.78;5092617;28;20423;-68
2022/12/06 22:29:20;;;;;;;18.20;9.70;;;;;;;4.71;100.00;101656.81;5091638;28;20039;-67
2022/12/06 22:31:45;;;;;;;14.27;10.32;;;;;;;4.69;100.00;101656.13;5093194;28;20511;-68
2022/12/06 22:34:11;;;;;;;13.52;9.45;;;;;;;4.70;100.00;101651.63;5093195;28;20024;-68
2022/12/06 22:36:36;;;;;;;13.77;8.82;;;;;;;4.67;100.00;101658.16;5093343;28;20097;-68
2022/12/06 22:39:03;;;;;;;11.88;8.93;;;;;;;4.67;100.00;101646.59;5092512;28;20135;-68
2022/12/06 22:41:29;;;;;;;18.48;9.00;;;;;;;4.70;100.00;101655.13;5092089;28;20031;-68
2022/12/06 22:44:02;;;;;;;13.48;9.38;;;;;;;4.69;100.00;101645.41;5092590;28;20032;-68
2022/12/06 22:46:29;;;;;;;12.07;8.10;;;;;;;4.70;100.00;101652.44;5092258;28;20024;-68
2022/12/06 22:48:55;;;;;;;12.88;8.30;;;;;;;4.68;100.00;101649.09;5091337;28;20089;-68
2022/12/06 22:51:26;;;;;;;12.57;9.35;;;;;;;4.66;100.00;101639.53;5092763;28;20050;-68
2022/12/06 22:54:00;;;;;;;12.35;8.77;;;;;;;4.69;100.00;101634.69;5093118;28;20032;-68
2022/12/06 22:56:27;;;;;;;12.10;8.85;;;;;;;4.66;100.00;101640.38;5092507;28;20035;-68
2022/12/06 22:58:53;;;;;;;12.35;8.13;;;;;;;4.69;100.00;101631.16;5089188;28;20036;-68
2022/12/06 23:01:20;;;;;;;11.85;8.73;;;;;;;4.68;100.00;101627.66;5090306;28;20027;-67
2022/12/06 23:03:48;;;;;;;13.50;9.02;;;;;;;4.67;100.00;101639.38;5092998;28;20375;-68
2022/12/06 23:06:15;;;;;;;11.02;8.95;;;;;;;4.62;100.00;101639.06;5092695;28;20063;-68
2022/12/06 23:08:41;;;;;;;13.93;9.32;;;;;;;4.63;100.00;101639.88;5091042;28;20111;-68
2022/12/06 23:11:10;;;;;;;13.27;9.20;;;;;;;4.61;100.00;101638.19;5093100;28;20077;-68